createdAt,value
2019-04-06T00:00:34.821Z,5.98
2019-04-06T00:03:00.618Z,5.91
2019-04-06T00:05:26.440Z,5.86
2019-04-06T00:07:52.278Z,5.80
2019-04-06T00:10:18.322Z,5.79
2019-04-06T00:12:44.409Z,5.81
2019-04-06T00:15:10.558Z,5.86
2019-04-06T00:17:41.291Z,5.76
2019-04-06T00:20:07.568Z,5.73
2019-04-06T00:22:37.145Z,5.76
2019-04-06T00:25:05.034Z,5.67
2019-04-06T00:27:30.822Z,5.66
2019-04-06T00:29:56.906Z,5.59
2019-04-06T00:32:27.636Z,5.19
2019-04-06T00:34:53.498Z,5.41
2019-04-06T00:37:19.270Z,5.38
2019-04-06T00:39:45.099Z,5.31
2019-04-06T00:42:10.928Z,5.31
2019-04-06T00:44:36.759Z,5.31
2019-04-06T00:47:02.647Z,5.25
2019-04-06T00:49:30.027Z,5.27
2019-04-06T00:51:55.840Z,5.26
2019-04-06T00:54:24.863Z,5.28
2019-04-06T00:56:50.913Z,5.31
2019-04-06T00:59:19.796Z,5.35
2019-04-06T01:01:45.579Z,5.36
2019-04-06T01:04:13.909Z,5.37
2019-04-06T01:06:39.719Z,5.38
2019-04-06T01:09:08.740Z,5.40
2019-04-06T01:11:34.546Z,5.46
2019-04-06T01:14:00.751Z,5.29
2019-04-06T01:16:26.539Z,5.29
2019-04-06T01:18:52.354Z,5.37
2019-04-06T01:21:21.253Z,5.33
2019-04-06T01:23:47.092Z,5.15
2019-04-06T01:26:16.056Z,5.06
2019-04-06T01:28:42.107Z,4.93
2019-04-06T01:31:11.136Z,4.92
2019-04-06T01:33:36.939Z,4.89
2019-04-06T01:36:05.553Z,4.86
2019-04-06T01:38:31.353Z,4.70
2019-04-06T01:40:59.955Z,4.66
2019-04-06T01:43:25.803Z,4.70
2019-04-06T01:45:54.611Z,4.68
2019-04-06T01:48:20.412Z,4.77
2019-04-06T01:50:46.245Z,4.74
2019-04-06T01:53:12.317Z,4.66
2019-04-06T01:55:38.376Z,4.61
2019-04-06T01:58:05.509Z,4.59
2019-04-06T02:00:31.323Z,4.61
2019-04-06T02:03:00.051Z,4.63
2019-04-06T02:05:25.874Z,4.55
2019-04-06T02:07:54.785Z,4.48
2019-04-06T02:10:20.968Z,4.52
2019-04-06T02:12:50.135Z,4.47
2019-04-06T02:15:16.036Z,4.43
2019-04-06T02:17:44.914Z,4.33
2019-04-06T02:20:10.809Z,4.31
2019-04-06T02:22:39.591Z,4.33
2019-04-06T02:25:05.695Z,4.25
2019-04-06T02:27:31.610Z,4.21
2019-04-06T02:30:17.294Z,4.24
2019-04-06T02:33:02.104Z,4.20
2019-04-06T02:35:39.480Z,4.15
2019-04-06T02:38:10.171Z,4.20
2019-04-06T02:40:37.967Z,4.22
2019-04-06T02:43:08.612Z,4.19
2019-04-06T02:45:34.552Z,4.16
2019-04-06T02:48:00.523Z,4.03
2019-04-06T02:50:26.319Z,3.92
2019-04-06T02:52:52.132Z,3.85
2019-04-06T02:55:18.190Z,3.82
2019-04-06T02:57:44.016Z,3.75
2019-04-06T03:00:10.209Z,3.79
2019-04-06T03:02:36.124Z,3.69
2019-04-06T03:05:04.143Z,3.78
2019-04-06T03:07:29.951Z,3.78
2019-04-06T03:09:55.763Z,3.68
2019-04-06T03:12:21.618Z,3.73
2019-04-06T03:14:47.672Z,3.71
2019-04-06T03:17:13.453Z,3.80
2019-04-06T03:19:39.506Z,3.76
2019-04-06T03:22:05.601Z,3.70
2019-04-06T03:24:31.515Z,3.68
2019-04-06T03:27:01.762Z,3.62
2019-04-06T03:29:24.996Z,3.57
2019-04-06T03:31:50.915Z,3.50
2019-04-06T03:34:21.570Z,3.37
2019-04-06T03:36:44.772Z,3.36
2019-04-06T03:39:10.599Z,3.40
2019-04-06T03:41:36.419Z,3.38
2019-04-06T03:44:02.312Z,3.37
2019-04-06T03:46:28.130Z,3.23
2019-04-06T03:48:53.939Z,3.31
2019-04-06T03:51:20.025Z,3.37
2019-04-06T03:53:45.836Z,3.30
2019-04-06T03:56:11.672Z,3.34
2019-04-06T03:58:37.540Z,3.33
2019-04-06T04:01:03.597Z,3.27
2019-04-06T04:03:29.677Z,3.30
2019-04-06T04:05:55.476Z,3.29
2019-04-06T04:08:21.299Z,3.28
2019-04-06T04:10:47.994Z,3.28
2019-04-06T04:13:13.917Z,3.28
2019-04-06T04:15:39.867Z,3.28
2019-04-06T04:18:06.050Z,3.20
2019-04-06T04:20:31.906Z,3.11
2019-04-06T04:22:57.709Z,3.18
2019-04-06T04:25:23.778Z,3.20
2019-04-06T04:27:49.661Z,3.05
2019-04-06T04:30:20.536Z,2.99
2019-04-06T04:32:43.566Z,3.03
2019-04-06T04:35:09.387Z,3.14
2019-04-06T04:37:35.190Z,3.10
2019-04-06T04:40:01.300Z,3.08
2019-04-06T04:42:27.083Z,3.06
2019-04-06T04:44:52.935Z,3.07
2019-04-06T04:47:18.741Z,2.96
2019-04-06T04:49:44.555Z,3.05
2019-04-06T04:52:10.677Z,3.04
2019-04-06T04:54:36.488Z,2.98
2019-04-06T04:57:02.678Z,2.95
2019-04-06T04:59:28.772Z,2.82
2019-04-06T05:01:54.746Z,2.83
2019-04-06T05:04:20.670Z,2.87
2019-04-06T05:06:49.975Z,2.91
2019-04-06T05:09:16.063Z,2.91
2019-04-06T05:11:41.862Z,2.99
2019-04-06T05:14:45.649Z,3.09
2019-04-06T05:17:11.481Z,3.09
2019-04-06T05:19:37.572Z,3.00
2019-04-06T05:22:03.518Z,2.94
2019-04-06T05:24:29.314Z,3.04
2019-04-06T05:26:55.439Z,3.10
2019-04-06T05:29:21.361Z,3.14
2019-04-06T05:31:47.114Z,3.23
2019-04-06T05:34:12.931Z,3.17
2019-04-06T05:36:38.994Z,3.13
2019-04-06T05:39:04.895Z,3.17
2019-04-06T05:41:30.811Z,3.21
2019-04-06T05:43:56.994Z,3.26
2019-04-06T05:46:22.810Z,3.29
2019-04-06T05:48:48.897Z,3.29
2019-04-06T05:51:14.709Z,3.34
2019-04-06T05:53:40.532Z,3.42
2019-04-06T05:56:06.774Z,3.41
2019-04-06T05:58:32.633Z,3.47
2019-04-06T06:00:58.457Z,3.70
2019-04-06T06:03:24.279Z,3.70
2019-04-06T06:05:50.076Z,3.69
2019-04-06T06:08:16.136Z,3.59
2019-04-06T06:10:42.016Z,3.52
2019-04-06T06:13:08.064Z,3.56
2019-04-06T06:15:34.084Z,3.62
2019-04-06T06:18:00.251Z,3.84
2019-04-06T06:20:26.053Z,4.16
2019-04-06T06:22:51.854Z,4.44
2019-04-06T06:25:17.765Z,4.67
2019-04-06T06:27:43.867Z,4.89
2019-04-06T06:30:10.087Z,4.99
2019-04-06T06:32:35.963Z,5.29
2019-04-06T06:35:02.884Z,5.52
2019-04-06T06:37:29.060Z,5.96
2019-04-06T06:39:58.241Z,6.08
2019-04-06T06:42:24.043Z,6.36
2019-04-06T06:44:50.161Z,6.70
2019-04-06T06:47:15.969Z,7.00
2019-04-06T06:49:41.764Z,7.21
2019-04-06T06:52:10.372Z,7.21
2019-04-06T06:54:36.483Z,7.33
2019-04-06T06:57:05.587Z,7.38
2019-04-06T06:59:31.415Z,7.55
2019-04-06T07:01:57.331Z,7.92
2019-04-06T07:04:23.391Z,7.26
2019-04-06T07:06:54.000Z,8.82
2019-04-06T07:09:19.818Z,9.05
2019-04-06T07:11:46.997Z,9.56
2019-04-06T07:14:13.086Z,9.93
2019-04-06T07:16:41.896Z,10.49
2019-04-06T07:19:07.948Z,10.97
2019-04-06T07:21:33.742Z,11.64
2019-04-06T07:23:59.569Z,11.86
2019-04-06T07:26:25.592Z,12.11
2019-04-06T07:28:54.181Z,12.16
2019-04-06T07:31:20.304Z,12.19
2019-04-06T07:33:49.151Z,12.09
2019-04-06T07:36:15.372Z,11.95
2019-04-06T07:38:44.030Z,11.75
2019-04-06T07:41:09.827Z,11.92
2019-04-06T07:43:38.713Z,12.39
2019-04-06T07:46:04.553Z,12.67
2019-04-06T07:48:33.467Z,13.52
2019-04-06T07:50:59.362Z,13.92
2019-04-06T07:53:28.385Z,13.89
2019-04-06T07:55:54.488Z,14.19
2019-04-06T07:58:20.470Z,14.30
2019-04-06T08:00:46.324Z,13.84
2019-04-06T08:03:12.140Z,13.51
2019-04-06T08:05:41.039Z,13.56
2019-04-06T08:08:07.096Z,12.83
2019-04-06T08:10:36.304Z,13.07
2019-04-06T08:13:02.127Z,13.26
2019-04-06T08:15:30.989Z,13.52
2019-04-06T08:17:56.796Z,13.53
2019-04-06T08:20:22.896Z,13.16
2019-04-06T08:22:49.170Z,12.98
2019-04-06T08:25:18.377Z,13.21
2019-04-06T08:27:44.198Z,12.69
2019-04-06T08:30:12.928Z,12.61
2019-04-06T08:32:38.924Z,12.93
2019-04-06T08:35:05.723Z,13.20
2019-04-06T08:37:31.532Z,12.86
2019-04-06T08:39:57.671Z,13.01
2019-04-06T08:42:26.758Z,12.99
2019-04-06T08:44:52.847Z,12.73
2019-04-06T08:47:18.674Z,12.78
2019-04-06T08:49:44.493Z,12.81
2019-04-06T08:52:14.315Z,13.20
2019-04-06T08:54:40.548Z,13.03
2019-04-06T08:57:09.450Z,13.12
2019-04-06T08:59:35.262Z,13.40
2019-04-06T09:02:04.194Z,13.09
2019-04-06T09:04:30.206Z,13.09
2019-04-06T09:06:59.009Z,13.13
2019-04-06T09:09:25.332Z,12.55
2019-04-06T09:11:51.241Z,13.25
2019-04-06T09:14:17.647Z,13.79
2019-04-06T09:16:43.596Z,13.57
2019-04-06T09:19:09.405Z,13.17
2019-04-06T09:21:35.300Z,12.76
2019-04-06T09:24:04.190Z,13.02
2019-04-06T09:26:30.011Z,13.21
2019-04-06T09:29:00.421Z,13.41
2019-04-06T09:31:26.517Z,13.88
2019-04-06T09:33:53.804Z,14.15
2019-04-06T09:36:19.896Z,14.43
2019-04-06T09:38:48.693Z,14.65
2019-04-06T09:41:14.508Z,14.82
2019-04-06T09:43:43.327Z,14.86
2019-04-06T09:46:13.817Z,15.25
2019-04-06T09:48:50.755Z,15.50
2019-04-06T09:51:36.958Z,15.78
2019-04-06T09:54:07.820Z,15.29
2019-04-06T09:56:41.607Z,15.87
2019-04-06T09:59:35.331Z,15.82
2019-04-06T10:02:11.863Z,14.64
2019-04-06T10:04:52.019Z,13.51
2019-04-06T10:07:22.834Z,13.28
2019-04-06T10:09:50.586Z,13.75
2019-04-06T10:12:35.429Z,14.57
2019-04-06T10:15:03.513Z,15.06
2019-04-06T10:17:46.619Z,14.94
2019-04-06T10:20:17.162Z,14.18
2019-04-06T10:22:50.468Z,14.29
2019-04-06T10:25:18.223Z,14.32
2019-04-06T10:28:05.403Z,13.38
2019-04-06T10:30:39.293Z,13.28
2019-04-06T10:33:13.327Z,13.29
2019-04-06T10:35:58.035Z,13.76
2019-04-06T10:38:38.566Z,14.34
2019-04-06T10:41:12.308Z,14.87
2019-04-06T10:43:45.652Z,14.60
2019-04-06T10:46:13.323Z,14.38
2019-04-06T10:48:44.268Z,14.48
2019-04-06T10:54:12.176Z,15.04
2019-04-06T10:56:45.682Z,16.10
2019-04-06T10:59:16.418Z,16.54
2019-04-06T11:02:01.431Z,17.47
2019-04-06T11:04:41.511Z,17.89
2019-04-06T11:07:26.149Z,17.83
2019-04-06T11:09:57.225Z,17.72
2019-04-06T11:12:28.649Z,17.44
2019-04-06T11:14:56.389Z,17.13
2019-04-06T11:17:26.922Z,17.16
2019-04-06T11:20:07.012Z,16.89
2019-04-06T11:22:48.335Z,16.77
2019-04-06T11:25:16.271Z,16.33
2019-04-06T11:27:47.249Z,16.08
2019-04-06T11:30:34.899Z,15.82
2019-04-06T11:33:06.060Z,15.45
2019-04-06T11:38:23.070Z,15.18
2019-04-06T11:40:54.223Z,15.34
2019-04-06T11:43:38.914Z,15.18
2019-04-06T11:46:07.248Z,14.89
2019-04-06T11:48:51.529Z,13.70
2019-04-06T11:51:19.248Z,13.15
2019-04-06T11:53:56.667Z,13.13
2019-04-06T11:56:24.987Z,13.20
2019-04-06T11:59:11.047Z,13.45
2019-04-06T12:01:41.685Z,13.50
2019-04-06T12:04:21.719Z,13.00
2019-04-06T12:07:06.579Z,13.02
2019-04-06T12:09:37.097Z,13.01
2019-04-06T12:12:04.997Z,13.06
2019-04-06T12:14:32.935Z,13.21
2019-04-06T12:17:15.429Z,13.58
2019-04-06T12:19:55.187Z,13.78
2019-04-06T12:22:22.881Z,13.71
2019-04-06T12:25:02.581Z,13.49
2019-04-06T12:27:54.366Z,13.71
2019-04-06T12:30:22.199Z,13.93
2019-04-06T12:32:49.924Z,13.77
2019-04-06T12:35:20.761Z,13.83
2019-04-06T12:37:51.814Z,13.97
2019-04-06T12:40:32.251Z,14.16
2019-04-06T12:43:15.442Z,14.35
2019-04-06T12:45:43.229Z,14.31
2019-04-06T12:48:13.726Z,14.42
2019-04-06T12:50:57.999Z,14.48
2019-04-06T12:53:42.302Z,14.67
2019-04-06T12:56:10.486Z,14.71
2019-04-06T12:58:47.579Z,14.85
2019-04-06T13:01:18.220Z,15.21
2019-04-06T13:04:02.834Z,15.50
2019-04-06T13:06:30.929Z,15.58
2019-04-06T13:09:15.949Z,15.66
2019-04-06T13:11:46.979Z,15.44
2019-04-06T13:14:20.814Z,15.31
2019-04-06T13:16:52.638Z,15.29
2019-04-06T13:19:41.898Z,15.36
2019-04-06T13:22:26.525Z,15.38
2019-04-06T13:25:12.389Z,15.82
2019-04-06T13:27:42.984Z,15.85
2019-04-06T13:30:29.032Z,15.55
2019-04-06T13:32:57.687Z,15.59
2019-04-06T13:35:31.804Z,15.44
2019-04-06T13:38:08.882Z,15.56
2019-04-06T13:40:53.103Z,15.54
2019-04-06T13:43:39.521Z,15.72
2019-04-06T13:46:23.935Z,15.96
2019-04-06T13:48:52.146Z,16.02
2019-04-06T13:51:31.828Z,16.09
2019-04-06T13:54:08.124Z,16.16
2019-04-06T13:56:38.931Z,16.02
2019-04-06T13:59:18.584Z,15.77
2019-04-06T14:01:46.624Z,15.47
2019-04-06T14:04:17.056Z,15.20
2019-04-06T14:07:01.527Z,14.97
2019-04-06T14:09:36.546Z,14.67
2019-04-06T14:12:13.187Z,14.57
2019-04-06T14:14:57.802Z,14.59
2019-04-06T14:17:31.928Z,14.72
2019-04-06T14:19:59.654Z,14.68
2019-04-06T14:22:27.369Z,15.15
2019-04-06T14:25:00.956Z,16.01
2019-04-06T14:27:29.067Z,16.22
2019-04-06T14:30:05.824Z,16.58
2019-04-06T14:32:50.791Z,16.66
2019-04-06T14:35:19.040Z,16.43
2019-04-06T14:37:59.039Z,15.76
2019-04-06T14:40:43.859Z,15.71
2019-04-06T14:43:28.479Z,15.35
2019-04-06T14:46:14.239Z,14.86
2019-04-06T14:48:48.048Z,14.76
2019-04-06T14:51:24.855Z,15.17
2019-04-06T14:54:08.078Z,15.62
2019-04-06T14:56:42.101Z,16.15
2019-04-06T14:59:10.229Z,16.59
2019-04-06T15:01:57.836Z,16.62
2019-04-06T15:04:22.784Z,16.46
2019-04-06T15:07:11.486Z,16.23
2019-04-06T15:09:45.681Z,16.21
2019-04-06T15:12:16.710Z,16.04
2019-04-06T15:14:47.213Z,15.83
2019-04-06T15:17:18.040Z,15.85
2019-04-06T15:19:45.798Z,16.01
2019-04-06T15:22:16.333Z,16.15
2019-04-06T15:24:47.326Z,16.25
2019-04-06T15:27:30.601Z,16.27
2019-04-06T15:30:11.039Z,15.82
2019-04-06T15:32:39.105Z,15.53
2019-04-06T15:35:10.400Z,15.65
2019-04-06T15:37:38.137Z,15.58
2019-04-06T15:40:20.835Z,15.37
2019-04-06T15:43:04.096Z,15.56
2019-04-06T15:45:44.645Z,15.39
2019-04-06T15:48:37.008Z,16.22
2019-04-06T15:51:05.201Z,16.67
2019-04-06T15:53:39.875Z,16.90
2019-04-06T15:56:10.535Z,17.13
2019-04-06T15:58:38.263Z,17.33
2019-04-06T16:01:11.760Z,17.38
2019-04-06T16:03:42.670Z,17.53
2019-04-06T16:06:13.541Z,17.64
2019-04-06T16:08:41.267Z,17.54
2019-04-06T16:11:25.917Z,16.96
2019-04-06T16:14:00.456Z,16.94
2019-04-06T16:16:40.318Z,16.94
2019-04-06T16:19:08.307Z,16.94
2019-04-06T16:21:53.266Z,17.10
2019-04-06T16:24:21.845Z,17.30
2019-04-06T16:27:05.140Z,17.59
2019-04-06T16:29:35.702Z,17.27
2019-04-06T16:32:18.712Z,17.27
2019-04-06T16:34:49.686Z,17.53
2019-04-06T16:37:20.542Z,17.95
2019-04-06T16:39:51.341Z,18.27
2019-04-06T16:42:36.044Z,18.22
2019-04-06T16:45:14.696Z,18.23
2019-04-06T16:47:59.465Z,18.07
2019-04-06T16:50:39.893Z,17.83
2019-04-06T16:53:08.163Z,17.67
2019-04-06T16:55:54.633Z,17.60
2019-04-06T16:58:37.742Z,17.38
2019-04-06T17:01:21.044Z,16.67
2019-04-06T17:04:01.229Z,16.60
2019-04-06T17:06:34.986Z,16.60
2019-04-06T17:09:08.219Z,16.26
2019-04-06T17:11:47.758Z,15.94
2019-04-06T17:14:26.030Z,15.88
2019-04-06T17:17:06.336Z,15.72
2019-04-06T17:19:34.334Z,15.56
2019-04-06T17:22:07.992Z,15.48
2019-04-06T17:24:42.091Z,15.35
2019-04-06T17:27:19.179Z,15.31
2019-04-06T17:29:50.431Z,15.23
2019-04-06T17:32:22.770Z,15.21
2019-04-06T17:34:54.448Z,15.05
2019-04-06T17:37:20.884Z,14.89
2019-04-06T17:40:04.126Z,14.81
2019-04-06T17:42:34.715Z,14.68
2019-04-06T17:45:11.515Z,14.64
2019-04-06T17:47:45.224Z,14.61
2019-04-06T17:50:19.821Z,14.59
2019-04-06T17:52:50.594Z,14.55
2019-04-06T17:55:18.320Z,14.40
2019-04-06T17:57:46.288Z,14.37
2019-04-06T18:00:32.696Z,14.32
2019-04-06T18:05:55.412Z,14.13
2019-04-06T18:08:32.161Z,14.01
2019-04-06T18:11:06.285Z,13.83
2019-04-06T18:13:51.066Z,13.79
2019-04-06T18:16:18.577Z,13.67
2019-04-06T18:18:44.600Z,13.56
2019-04-06T18:21:10.405Z,13.49
2019-04-06T18:23:36.247Z,13.39
2019-04-06T18:26:02.341Z,13.36
2019-04-06T18:28:28.409Z,13.29
2019-04-06T18:30:56.140Z,13.24
2019-04-06T18:35:52.259Z,13.05
2019-04-06T18:38:19.987Z,13.01
2019-04-06T18:40:46.114Z,12.94
2019-04-06T18:43:11.940Z,12.84
2019-04-06T18:45:37.757Z,12.85
2019-04-06T18:48:03.580Z,12.77
2019-04-06T18:50:36.717Z,12.72
2019-04-06T18:52:57.772Z,12.63
2019-04-06T18:55:24.426Z,12.62
2019-04-06T18:57:50.410Z,12.55
2019-04-06T19:00:17.291Z,12.51
2019-04-06T19:02:43.703Z,12.49
2019-04-06T19:05:09.997Z,12.33
2019-04-06T19:07:35.813Z,12.30
2019-04-06T19:10:04.624Z,12.22
2019-04-06T19:12:30.442Z,12.15
2019-04-06T19:14:56.547Z,12.13
2019-04-06T19:17:22.585Z,12.00
2019-04-06T19:19:48.865Z,11.91
2019-04-06T19:22:14.983Z,11.77
2019-04-06T19:24:41.039Z,11.77
2019-04-06T19:27:06.872Z,11.76
2019-04-06T19:29:32.974Z,11.68
2019-04-06T19:31:59.029Z,11.53
2019-04-06T19:34:25.013Z,11.47
2019-04-06T19:36:50.971Z,11.40
2019-04-06T19:39:16.868Z,11.38
2019-04-06T19:41:42.833Z,11.33
2019-04-06T19:44:09.159Z,11.26
2019-04-06T19:46:35.187Z,11.16
2019-04-06T19:49:01.258Z,10.89
2019-04-06T19:51:27.387Z,11.02
2019-04-06T19:53:53.639Z,11.07
2019-04-06T19:56:20.058Z,11.05
2019-04-06T19:58:46.426Z,11.02
2019-04-06T20:01:12.636Z,10.94
2019-04-06T20:03:41.277Z,10.87
2019-04-06T20:06:07.098Z,10.77
2019-04-06T20:08:36.269Z,10.73
2019-04-06T20:11:02.293Z,10.62
2019-04-06T20:13:28.915Z,10.55
2019-04-06T20:15:55.505Z,10.52
2019-04-06T20:18:21.760Z,10.44
2019-04-06T20:20:47.918Z,10.42
2019-04-06T20:23:14.001Z,10.40
2019-04-06T20:25:40.207Z,10.41
2019-04-06T20:28:06.641Z,9.84
2019-04-06T20:30:34.649Z,10.32
2019-04-06T20:33:00.448Z,10.35
2019-04-06T20:35:29.479Z,10.34
2019-04-06T20:37:55.506Z,10.26
2019-04-06T20:40:24.582Z,10.41
2019-04-06T20:42:50.719Z,10.37
2019-04-06T20:45:19.668Z,10.23
2019-04-06T20:47:45.754Z,10.14
2019-04-06T20:50:11.949Z,10.11
2019-04-06T20:52:37.778Z,10.05
2019-04-06T20:55:06.343Z,9.93
2019-04-06T20:57:32.189Z,9.83
2019-04-06T20:59:57.977Z,9.80
2019-04-06T21:02:25.547Z,9.77
2019-04-06T21:04:51.438Z,9.74
2019-04-06T21:07:20.655Z,9.75
2019-04-06T21:09:47.236Z,9.83
2019-04-06T21:12:15.980Z,9.61
2019-04-06T21:14:41.879Z,9.52
2019-04-06T21:17:11.647Z,9.52
2019-04-06T21:19:37.764Z,9.54
2019-04-06T21:22:04.841Z,9.52
2019-04-06T21:24:30.978Z,9.47
2019-04-06T21:26:57.122Z,9.52
2019-04-06T21:29:23.511Z,9.50
2019-04-06T21:31:49.826Z,9.43
2019-04-06T21:34:19.330Z,9.41
2019-04-06T21:36:46.196Z,9.37
2019-04-06T21:39:12.178Z,9.31
2019-04-06T21:41:38.480Z,9.30
2019-04-06T21:44:07.527Z,9.33
2019-04-06T21:46:33.671Z,9.33
2019-04-06T21:49:01.230Z,9.32
2019-04-06T21:51:27.555Z,9.31
2019-04-06T21:53:57.577Z,9.28
2019-04-06T21:56:23.487Z,9.27
2019-04-06T21:58:52.323Z,9.28
2019-04-06T22:01:19.549Z,8.04
2019-04-06T22:03:45.841Z,9.23
2019-04-06T22:06:11.915Z,9.20
2019-04-06T22:08:38.491Z,9.21
2019-04-06T22:11:04.808Z,9.13
2019-04-06T22:13:30.912Z,9.12
2019-04-06T22:15:57.243Z,9.08
2019-04-06T22:18:23.541Z,9.05
2019-04-06T22:20:52.355Z,8.88
2019-04-06T22:23:18.548Z,7.32
2019-04-06T22:25:47.575Z,8.82
2019-04-06T22:28:13.383Z,8.77
2019-04-06T22:30:43.178Z,8.64
2019-04-06T22:33:09.259Z,8.62
2019-04-06T22:35:38.393Z,8.63
2019-04-06T22:38:04.787Z,8.61
2019-04-06T22:40:30.570Z,8.52
2019-04-06T22:42:56.363Z,8.55
2019-04-06T22:45:24.217Z,8.51
2019-04-06T22:47:50.756Z,8.42
2019-04-06T22:50:17.610Z,8.43
2019-04-06T22:52:43.526Z,8.44
2019-04-06T22:55:10.170Z,8.51
2019-04-06T22:57:39.763Z,8.51
2019-04-06T23:00:08.007Z,8.55
2019-04-06T23:02:42.758Z,8.53
2019-04-06T23:05:25.577Z,8.46
2019-04-06T23:07:51.715Z,8.42
2019-04-06T23:10:18.483Z,8.41
2019-04-06T23:12:44.839Z,8.39
2019-04-06T23:15:11.821Z,8.32
2019-04-06T23:17:38.536Z,8.39
2019-04-06T23:20:04.714Z,8.33
2019-04-06T23:22:31.742Z,8.31
2019-04-06T23:24:58.031Z,8.26
2019-04-06T23:27:24.354Z,8.21
2019-04-06T23:29:50.805Z,8.09
2019-04-06T23:32:16.979Z,8.10
2019-04-06T23:34:43.101Z,8.11
2019-04-06T23:37:08.931Z,8.14
2019-04-06T23:39:34.969Z,8.18
2019-04-06T23:42:01.008Z,8.10
2019-04-06T23:44:27.070Z,8.10
2019-04-06T23:46:53.122Z,8.08
2019-04-06T23:49:19.102Z,8.09
2019-04-06T23:51:45.243Z,8.07
2019-04-06T23:54:11.101Z,8.09
2019-04-06T23:56:36.916Z,8.09
2019-04-06T23:59:03.357Z,8.07
